sensor_id;sensor_type;location;lat;lon;timestamp;pressure;altitude;pressure_sealevel;temperature;humidity
50356;BME280;36264;51.296;-0.602;2023-05-23T00:01:33;102277.28;;;15.97;47.26
50356;BME280;36264;51.296;-0.602;2023-05-23T00:04:02;102279.06;;;15.95;47.44
50356;BME280;36264;51.296;-0.602;2023-05-23T00:06:27;102274.66;;;15.97;47.45
50356;BME280;36264;51.296;-0.602;2023-05-23T00:08:53;102269.28;;;16.00;47.73
50356;BME280;36264;51.296;-0.602;2023-05-23T00:11:18;102261.69;;;15.92;48.00
50356;BME280;36264;51.296;-0.602;2023-05-23T00:13:44;102264.31;;;15.92;47.77
50356;BME280;36264;51.296;-0.602;2023-05-23T00:16:10;102261.81;;;15.88;48.01
50356;BME280;36264;51.296;-0.602;2023-05-23T00:18:37;102251.38;;;15.86;48.08
50356;BME280;36264;51.296;-0.602;2023-05-23T00:21:02;102254.88;;;15.85;48.16
50356;BME280;36264;51.296;-0.602;2023-05-23T00:23:28;102250.59;;;15.83;48.23
50356;BME280;36264;51.296;-0.602;2023-05-23T00:25:54;102259.38;;;15.82;48.29
50356;BME280;36264;51.296;-0.602;2023-05-23T00:28:20;102262.13;;;15.77;48.21
50356;BME280;36264;51.296;-0.602;2023-05-23T00:30:46;102265.63;;;15.74;48.27
50356;BME280;36264;51.296;-0.602;2023-05-23T00:33:13;102265.91;;;15.65;48.33
50356;BME280;36264;51.296;-0.602;2023-05-23T00:35:40;102261.69;;;15.60;48.50
50356;BME280;36264;51.296;-0.602;2023-05-23T00:38:05;102261.88;;;15.53;48.51
50356;BME280;36264;51.296;-0.602;2023-05-23T00:40:32;102259.25;;;15.53;48.90
50356;BME280;36264;51.296;-0.602;2023-05-23T00:42:58;102259.53;;;15.43;48.93
50356;BME280;36264;51.296;-0.602;2023-05-23T00:45:25;102254.38;;;15.39;49.07
50356;BME280;36264;51.296;-0.602;2023-05-23T00:47:50;102263.97;;;15.40;49.00
50356;BME280;36264;51.296;-0.602;2023-05-23T00:50:17;102264.84;;;15.39;49.21
50356;BME280;36264;51.296;-0.602;2023-05-23T00:52:44;102255.31;;;15.38;49.20
50356;BME280;36264;51.296;-0.602;2023-05-23T00:55:11;102254.66;;;15.29;49.20
50356;BME280;36264;51.296;-0.602;2023-05-23T00:57:37;102261.75;;;15.25;49.61
50356;BME280;36264;51.296;-0.602;2023-05-23T01:00:06;102261.88;;;15.20;50.09
50356;BME280;36264;51.296;-0.602;2023-05-23T01:02:36;102260.25;;;15.16;49.96
50356;BME280;36264;51.296;-0.602;2023-05-23T01:05:05;102258.78;;;15.04;50.46
50356;BME280;36264;51.296;-0.602;2023-05-23T01:07:31;102259.75;;;15.02;50.34
50356;BME280;36264;51.296;-0.602;2023-05-23T01:09:56;102264.94;;;15.03;50.50
50356;BME280;36264;51.296;-0.602;2023-05-23T01:13:03;102260.50;;;15.07;53.08
50356;BME280;36264;51.296;-0.602;2023-05-23T01:15:41;102258.69;;;15.09;51.12
50356;BME280;36264;51.296;-0.602;2023-05-23T01:20:49;102254.28;;;15.10;51.02
50356;BME280;36264;51.296;-0.602;2023-05-23T01:23:30;102259.78;;;15.00;51.46
50356;BME280;36264;51.296;-0.602;2023-05-23T01:28:55;102264.19;;;14.98;51.50
50356;BME280;36264;51.296;-0.602;2023-05-23T01:31:23;102271.22;;;14.96;51.23
50356;BME280;36264;51.296;-0.602;2023-05-23T01:33:49;102276.53;;;14.93;51.54
50356;BME280;36264;51.296;-0.602;2023-05-23T01:36:17;102273.09;;;14.91;51.62
50356;BME280;36264;51.296;-0.602;2023-05-23T01:38:43;102269.56;;;14.92;51.55
50356;BME280;36264;51.296;-0.602;2023-05-23T01:41:08;102269.50;;;14.95;51.52
50356;BME280;36264;51.296;-0.602;2023-05-23T01:43:33;102268.59;;;14.96;51.63
50356;BME280;36264;51.296;-0.602;2023-05-23T01:45:59;102275.56;;;14.97;51.48
50356;BME280;36264;51.296;-0.602;2023-05-23T01:48:26;102277.34;;;14.95;51.91
50356;BME280;36264;51.296;-0.602;2023-05-23T01:50:53;102276.53;;;14.93;51.61
50356;BME280;36264;51.296;-0.602;2023-05-23T01:53:21;102272.09;;;14.95;51.69
50356;BME280;36264;51.296;-0.602;2023-05-23T01:55:47;102271.34;;;14.92;52.02
50356;BME280;36264;51.296;-0.602;2023-05-23T01:58:13;102274.91;;;14.88;52.16
50356;BME280;36264;51.296;-0.602;2023-05-23T02:00:39;102281.09;;;14.85;52.40
50356;BME280;36264;51.296;-0.602;2023-05-23T02:03:05;102287.25;;;14.82;52.36
50356;BME280;36264;51.296;-0.602;2023-05-23T02:05:31;102287.31;;;14.79;52.39
50356;BME280;36264;51.296;-0.602;2023-05-23T02:07:56;102293.50;;;14.77;52.32
50356;BME280;36264;51.296;-0.602;2023-05-23T02:10:22;102291.81;;;14.74;52.71
50356;BME280;36264;51.296;-0.602;2023-05-23T02:12:47;102289.34;;;14.68;52.69
50356;BME280;36264;51.296;-0.602;2023-05-23T02:15:12;102287.72;;;14.64;52.92
50356;BME280;36264;51.296;-0.602;2023-05-23T02:17:38;102296.50;;;14.58;53.03
50356;BME280;36264;51.296;-0.602;2023-05-23T02:20:04;102299.28;;;14.50;53.33
50356;BME280;36264;51.296;-0.602;2023-05-23T02:22:30;102301.13;;;14.47;53.43
50356;BME280;36264;51.296;-0.602;2023-05-23T02:24:55;102304.63;;;14.46;53.40
50356;BME280;36264;51.296;-0.602;2023-05-23T02:27:21;102309.84;;;14.46;53.38
50356;BME280;36264;51.296;-0.602;2023-05-23T02:29:46;102310.78;;;14.45;53.62
50356;BME280;36264;51.296;-0.602;2023-05-23T02:32:11;102316.06;;;14.42;53.50
50356;BME280;36264;51.296;-0.602;2023-05-23T02:34:37;102311.84;;;14.35;53.78
50356;BME280;36264;51.296;-0.602;2023-05-23T02:37:02;102311.09;;;14.29;53.99
50356;BME280;36264;51.296;-0.602;2023-05-23T02:39:28;102319.06;;;14.23;54.27
50356;BME280;36264;51.296;-0.602;2023-05-23T02:41:53;102324.41;;;14.17;54.26
50356;BME280;36264;51.296;-0.602;2023-05-23T02:44:18;102329.78;;;14.11;54.56
50356;BME280;36264;51.296;-0.602;2023-05-23T02:46:44;102325.53;;;14.07;54.61
50356;BME280;36264;51.296;-0.602;2023-05-23T02:49:10;102323.84;;;14.03;54.79
50356;BME280;36264;51.296;-0.602;2023-05-23T02:51:35;102325.69;;;13.98;54.95
50356;BME280;36264;51.296;-0.602;2023-05-23T02:54:01;102331.84;;;13.95;55.03
50356;BME280;36264;51.296;-0.602;2023-05-23T02:56:26;102336.25;;;13.91;55.36
50356;BME280;36264;51.296;-0.602;2023-05-23T02:58:51;102331.06;;;13.90;55.12
50356;BME280;36264;51.296;-0.602;2023-05-23T03:01:17;102331.94;;;13.89;55.38
50356;BME280;36264;51.296;-0.602;2023-05-23T03:03:42;102328.50;;;13.87;55.02
50356;BME280;36264;51.296;-0.602;2023-05-23T03:06:08;102330.38;;;13.82;55.35
50356;BME280;36264;51.296;-0.602;2023-05-23T03:08:35;102324.31;;;13.78;55.66
50356;BME280;36264;51.296;-0.602;2023-05-23T03:11:00;102329.56;;;13.76;55.62
50356;BME280;36264;51.296;-0.602;2023-05-23T03:13:27;102328.78;;;13.73;55.74
50356;BME280;36264;51.296;-0.602;2023-05-23T03:15:52;102337.53;;;13.70;55.73
50356;BME280;36264;51.296;-0.602;2023-05-23T03:18:17;102329.72;;;13.70;56.00
50356;BME280;36264;51.296;-0.602;2023-05-23T03:20:43;102334.09;;;13.68;55.79
50356;BME280;36264;51.296;-0.602;2023-05-23T03:23:08;102332.47;;;13.63;55.96
50356;BME280;36264;51.296;-0.602;2023-05-23T03:25:34;102336.00;;;13.58;56.17
50356;BME280;36264;51.296;-0.602;2023-05-23T03:28:00;102335.22;;;13.53;56.20
50356;BME280;36264;51.296;-0.602;2023-05-23T03:30:25;102325.75;;;13.48;56.25
50356;BME280;36264;51.296;-0.602;2023-05-23T03:32:50;102323.47;;;13.28;56.89
50356;BME280;36264;51.296;-0.602;2023-05-23T03:35:17;102322.72;;;13.19;57.27
50356;BME280;36264;51.296;-0.602;2023-05-23T03:37:43;102324.50;;;13.17;57.33
50356;BME280;36264;51.296;-0.602;2023-05-23T03:40:08;102324.50;;;13.17;57.49
50356;BME280;36264;51.296;-0.602;2023-05-23T03:42:35;102329.69;;;13.19;57.55
50356;BME280;36264;51.296;-0.602;2023-05-23T03:45:01;102333.31;;;13.12;57.72
50356;BME280;36264;51.296;-0.602;2023-05-23T03:47:26;102329.03;;;13.08;57.82
50356;BME280;36264;51.296;-0.602;2023-05-23T03:49:51;102329.09;;;13.03;57.68
50356;BME280;36264;51.296;-0.602;2023-05-23T03:52:17;102339.53;;;13.01;58.35
50356;BME280;36264;51.296;-0.602;2023-05-23T03:54:42;102340.53;;;12.94;58.55
50356;BME280;36264;51.296;-0.602;2023-05-23T03:57:08;102339.78;;;12.84;58.67
50356;BME280;36264;51.296;-0.602;2023-05-23T03:59:33;102338.19;;;12.77;58.87
50356;BME280;36264;51.296;-0.602;2023-05-23T04:01:59;102344.22;;;12.79;59.17
50356;BME280;36264;51.296;-0.602;2023-05-23T04:04:26;102340.78;;;12.77;58.98
50356;BME280;36264;51.296;-0.602;2023-05-23T04:06:51;102342.56;;;12.75;59.32
50356;BME280;36264;51.296;-0.602;2023-05-23T04:09:17;102337.34;;;12.75;59.28
50356;BME280;36264;51.296;-0.602;2023-05-23T04:11:42;102333.81;;;12.78;59.60
50356;BME280;36264;51.296;-0.602;2023-05-23T04:14:08;102328.59;;;12.79;59.56
50356;BME280;36264;51.296;-0.602;2023-05-23T04:16:34;102341.56;;;12.84;59.68
50356;BME280;36264;51.296;-0.602;2023-05-23T04:19:00;102339.81;;;12.83;59.66
50356;BME280;36264;51.296;-0.602;2023-05-23T04:21:26;102335.53;;;12.80;59.84
50356;BME280;36264;51.296;-0.602;2023-05-23T04:23:52;102335.53;;;12.80;60.00
50356;BME280;36264;51.296;-0.602;2023-05-23T04:26:18;102331.16;;;12.82;59.90
50356;BME280;36264;51.296;-0.602;2023-05-23T04:28:43;102337.13;;;12.87;59.88
50356;BME280;36264;51.296;-0.602;2023-05-23T04:31:10;102332.84;;;12.85;59.91
50356;BME280;36264;51.296;-0.602;2023-05-23T04:33:37;102343.25;;;12.86;59.73
50356;BME280;36264;51.296;-0.602;2023-05-23T04:36:03;102343.28;;;12.85;59.81
50356;BME280;36264;51.296;-0.602;2023-05-23T04:38:28;102354.53;;;12.87;59.94
50356;BME280;36264;51.296;-0.602;2023-05-23T04:40:54;102356.25;;;12.90;60.11
50356;BME280;36264;51.296;-0.602;2023-05-23T04:43:19;102356.22;;;12.93;60.37
50356;BME280;36264;51.296;-0.602;2023-05-23T04:45:46;102351.81;;;12.96;60.21
50356;BME280;36264;51.296;-0.602;2023-05-23T04:48:14;102360.47;;;12.97;60.41
50356;BME280;36264;51.296;-0.602;2023-05-23T04:50:41;102356.16;;;12.97;60.07
50356;BME280;36264;51.296;-0.602;2023-05-23T04:53:07;102354.47;;;12.93;60.49
50356;BME280;36264;51.296;-0.602;2023-05-23T04:55:32;102356.16;;;12.96;60.97
50356;BME280;36264;51.296;-0.602;2023-05-23T04:57:59;102363.00;;;13.03;60.51
50356;BME280;36264;51.296;-0.602;2023-05-23T05:00:25;102361.22;;;13.05;60.70
50356;BME280;36264;51.296;-0.602;2023-05-23T05:02:50;102362.06;;;13.07;60.87
50356;BME280;36264;51.296;-0.602;2023-05-23T05:05:16;102355.09;;;13.08;61.10
50356;BME280;36264;51.296;-0.602;2023-05-23T05:07:41;102356.84;;;13.09;61.36
50356;BME280;36264;51.296;-0.602;2023-05-23T05:10:07;102364.56;;;13.15;61.46
50356;BME280;36264;51.296;-0.602;2023-05-23T05:12:33;102372.25;;;13.22;61.09
50356;BME280;36264;51.296;-0.602;2023-05-23T05:14:58;102376.50;;;13.28;61.38
50356;BME280;36264;51.296;-0.602;2023-05-23T05:17:24;102376.47;;;13.33;61.47
50356;BME280;36264;51.296;-0.602;2023-05-23T05:19:49;102372.06;;;13.36;61.79
50356;BME280;36264;51.296;-0.602;2023-05-23T05:22:15;102368.47;;;13.44;61.37
50356;BME280;36264;51.296;-0.602;2023-05-23T05:24:40;102377.06;;;13.50;61.73
50356;BME280;36264;51.296;-0.602;2023-05-23T05:27:06;102386.47;;;13.57;61.88
50356;BME280;36264;51.296;-0.602;2023-05-23T05:29:31;102390.69;;;13.66;61.83
50356;BME280;36264;51.296;-0.602;2023-05-23T05:31:58;102394.03;;;13.74;61.95
50356;BME280;36264;51.296;-0.602;2023-05-23T05:34:25;102388.69;;;13.81;62.30
50356;BME280;36264;51.296;-0.602;2023-05-23T05:36:50;102400.91;;;13.80;63.14
50356;BME280;36264;51.296;-0.602;2023-05-23T05:39:21;102390.41;;;13.83;63.70
50356;BME280;36264;51.296;-0.602;2023-05-23T05:41:47;102394.59;;;13.90;63.45
50356;BME280;36264;51.296;-0.602;2023-05-23T05:44:12;102390.09;;;13.99;63.62
50356;BME280;36264;51.296;-0.602;2023-05-23T05:46:38;102388.28;;;14.04;64.94
50356;BME280;36264;51.296;-0.602;2023-05-23T05:49:03;102387.25;;;14.11;63.75
50356;BME280;36264;51.296;-0.602;2023-05-23T05:51:29;102387.19;;;14.14;65.98
50356;BME280;36264;51.296;-0.602;2023-05-23T05:53:55;102387.81;;;14.27;64.43
50356;BME280;36264;51.296;-0.602;2023-05-23T05:56:21;102383.28;;;14.35;64.32
50356;BME280;36264;51.296;-0.602;2023-05-23T05:58:46;102388.28;;;14.46;65.06
50356;BME280;36264;51.296;-0.602;2023-05-23T06:01:12;102397.63;;;14.58;64.51
50356;BME280;36264;51.296;-0.602;2023-05-23T06:03:38;102399.19;;;14.68;64.53
50356;BME280;36264;51.296;-0.602;2023-05-23T06:06:03;102396.34;;;14.79;64.37
50356;BME280;36264;51.296;-0.602;2023-05-23T06:08:28;102399.63;;;14.87;65.09
50356;BME280;36264;51.296;-0.602;2023-05-23T06:10:54;102401.16;;;14.97;64.61
50356;BME280;36264;51.296;-0.602;2023-05-23T06:13:20;102402.56;;;15.11;63.74
50356;BME280;36264;51.296;-0.602;2023-05-23T06:15:46;102400.56;;;15.22;64.01
50356;BME280;36264;51.296;-0.602;2023-05-23T06:18:11;102397.69;;;15.33;64.40
50356;BME280;36264;51.296;-0.602;2023-05-23T06:20:37;102401.84;;;15.42;63.80
50356;BME280;36264;51.296;-0.602;2023-05-23T06:23:02;102403.34;;;15.50;63.41
50356;BME280;36264;51.296;-0.602;2023-05-23T06:25:30;102414.41;;;15.62;62.91
50356;BME280;36264;51.296;-0.602;2023-05-23T06:27:55;102407.13;;;15.73;62.81
50356;BME280;36264;51.296;-0.602;2023-05-23T06:30:20;102406.03;;;15.83;62.15
50356;BME280;36264;51.296;-0.602;2023-05-23T06:32:47;102408.53;;;15.88;62.76
50356;BME280;36264;51.296;-0.602;2023-05-23T06:35:12;102413.75;;;15.89;62.41
50356;BME280;36264;51.296;-0.602;2023-05-23T06:37:38;102407.63;;;15.89;62.12
50356;BME280;36264;51.296;-0.602;2023-05-23T06:40:07;102411.72;;;15.99;62.02
50356;BME280;36264;51.296;-0.602;2023-05-23T06:42:33;102407.22;;;16.04;62.01
50356;BME280;36264;51.296;-0.602;2023-05-23T06:44:58;102403.44;;;16.15;62.55
50356;BME280;36264;51.296;-0.602;2023-05-23T06:47:24;102400.00;;;16.12;63.11
50356;BME280;36264;51.296;-0.602;2023-05-23T06:49:49;102403.97;;;16.27;62.07
50356;BME280;36264;51.296;-0.602;2023-05-23T06:52:15;102404.38;;;16.43;61.58
50356;BME280;36264;51.296;-0.602;2023-05-23T06:54:40;102396.56;;;16.42;61.29
50356;BME280;36264;51.296;-0.602;2023-05-23T06:57:06;102382.00;;;16.60;61.12
50356;BME280;36264;51.296;-0.602;2023-05-23T06:59:31;102379.78;;;16.76;60.59
50356;BME280;36264;51.296;-0.602;2023-05-23T07:01:56;102377.72;;;16.87;60.45
50356;BME280;36264;51.296;-0.602;2023-05-23T07:04:22;102390.88;;;16.86;59.93
50356;BME280;36264;51.296;-0.602;2023-05-23T07:06:47;102380.53;;;16.79;59.76
50356;BME280;36264;51.296;-0.602;2023-05-23T07:09:12;102389.47;;;16.74;59.79
50356;BME280;36264;51.296;-0.602;2023-05-23T07:11:38;102385.91;;;16.75;59.92
50356;BME280;36264;51.296;-0.602;2023-05-23T07:14:05;102395.53;;;16.76;60.09
50356;BME280;36264;51.296;-0.602;2023-05-23T07:16:31;102394.59;;;16.78;59.50
50356;BME280;36264;51.296;-0.602;2023-05-23T07:18:57;102399.53;;;16.89;59.66
50356;BME280;36264;51.296;-0.602;2023-05-23T07:21:22;102403.53;;;17.01;59.31
50356;BME280;36264;51.296;-0.602;2023-05-23T07:23:47;102406.81;;;17.08;58.65
50356;BME280;36264;51.296;-0.602;2023-05-23T07:26:13;102400.31;;;17.19;58.74
50356;BME280;36264;51.296;-0.602;2023-05-23T07:28:38;102402.06;;;17.19;58.44
50356;BME280;36264;51.296;-0.602;2023-05-23T07:31:04;102401.81;;;17.27;58.10
50356;BME280;36264;51.296;-0.602;2023-05-23T07:33:29;102405.63;;;17.45;57.39
50356;BME280;36264;51.296;-0.602;2023-05-23T07:35:55;102398.13;;;17.59;56.97
50356;BME280;36264;51.296;-0.602;2023-05-23T07:38:20;102397.72;;;17.70;56.41
50356;BME280;36264;51.296;-0.602;2023-05-23T07:40:46;102388.53;;;17.83;56.50
50356;BME280;36264;51.296;-0.602;2023-05-23T07:43:11;102398.91;;;17.88;56.04
50356;BME280;36264;51.296;-0.602;2023-05-23T07:45:36;102399.50;;;17.96;55.72
50356;BME280;36264;51.296;-0.602;2023-05-23T07:48:02;102410.59;;;18.04;55.24
50356;BME280;36264;51.296;-0.602;2023-05-23T07:50:28;102406.94;;;18.08;54.95
50356;BME280;36264;51.296;-0.602;2023-05-23T07:52:53;102404.16;;;18.13;54.60
50356;BME280;36264;51.296;-0.602;2023-05-23T07:55:19;102403.00;;;18.20;54.74
50356;BME280;36264;51.296;-0.602;2023-05-23T07:57:46;102400.09;;;18.28;54.37
50356;BME280;36264;51.296;-0.602;2023-05-23T08:00:12;102401.69;;;18.32;54.65
50356;BME280;36264;51.296;-0.602;2023-05-23T08:02:38;102406.19;;;18.28;54.49
50356;BME280;36264;51.296;-0.602;2023-05-23T08:05:04;102401.75;;;18.31;54.63
50356;BME280;36264;51.296;-0.602;2023-05-23T08:07:29;102411.75;;;18.21;53.86
50356;BME280;36264;51.296;-0.602;2023-05-23T08:09:55;102412.50;;;18.24;53.95
50356;BME280;36264;51.296;-0.602;2023-05-23T08:12:20;102411.00;;;18.17;53.43
50356;BME280;36264;51.296;-0.602;2023-05-23T08:14:45;102407.34;;;18.21;53.65
50356;BME280;36264;51.296;-0.602;2023-05-23T08:17:11;102402.72;;;18.28;53.49
50356;BME280;36264;51.296;-0.602;2023-05-23T08:19:37;102405.22;;;18.31;53.38
50356;BME280;36264;51.296;-0.602;2023-05-23T08:22:02;102402.75;;;18.50;53.23
50356;BME280;36264;51.296;-0.602;2023-05-23T08:24:29;102400.41;;;18.66;52.58
50356;BME280;36264;51.296;-0.602;2023-05-23T08:26:54;102410.13;;;18.88;52.58
50356;BME280;36264;51.296;-0.602;2023-05-23T08:29:20;102405.47;;;18.94;51.96
50356;BME280;36264;51.296;-0.602;2023-05-23T08:31:46;102410.25;;;19.07;51.75
50356;BME280;36264;51.296;-0.602;2023-05-23T08:34:11;102405.03;;;19.27;51.17
50356;BME280;36264;51.296;-0.602;2023-05-23T08:36:38;102405.63;;;19.34;50.84
50356;BME280;36264;51.296;-0.602;2023-05-23T08:39:04;102404.38;;;19.43;50.27
50356;BME280;36264;51.296;-0.602;2023-05-23T08:41:29;102404.44;;;19.41;49.51
50356;BME280;36264;51.296;-0.602;2023-05-23T08:43:56;102401.41;;;19.50;49.71
50356;BME280;36264;51.296;-0.602;2023-05-23T08:46:21;102402.47;;;19.67;49.88
50356;BME280;36264;51.296;-0.602;2023-05-23T08:48:52;102400.91;;;19.83;49.39
50356;BME280;36264;51.296;-0.602;2023-05-23T08:51:20;102397.59;;;19.99;49.31
50356;BME280;36264;51.296;-0.602;2023-05-23T08:53:46;102395.72;;;20.21;49.50
50356;BME280;36264;51.296;-0.602;2023-05-23T08:56:12;102390.16;;;20.47;48.83
50356;BME280;36264;51.296;-0.602;2023-05-23T08:58:38;102397.50;;;20.59;48.19
50356;BME280;36264;51.296;-0.602;2023-05-23T09:01:06;102396.41;;;20.82;48.12
50356;BME280;36264;51.296;-0.602;2023-05-23T09:03:33;102398.88;;;21.04;48.18
50356;BME280;36264;51.296;-0.602;2023-05-23T09:06:02;102392.28;;;21.13;47.35
50356;BME280;36264;51.296;-0.602;2023-05-23T09:08:27;102402.47;;;21.03;46.62
50356;BME280;36264;51.296;-0.602;2023-05-23T09:10:53;102388.75;;;20.95;46.65
50356;BME280;36264;51.296;-0.602;2023-05-23T09:13:19;102390.78;;;20.90;44.88
50356;BME280;36264;51.296;-0.602;2023-05-23T09:18:25;102394.00;;;20.77;45.98
50356;BME280;36264;51.296;-0.602;2023-05-23T09:20:51;102393.59;;;20.68;46.13
50356;BME280;36264;51.296;-0.602;2023-05-23T09:23:16;102396.38;;;20.65;46.18
50356;BME280;36264;51.296;-0.602;2023-05-23T09:25:46;102400.84;;;20.62;45.18
50356;BME280;36264;51.296;-0.602;2023-05-23T09:28:11;102395.22;;;20.51;45.87
50356;BME280;36264;51.296;-0.602;2023-05-23T09:30:37;102394.13;;;20.55;45.57
50356;BME280;36264;51.296;-0.602;2023-05-23T09:33:03;102394.72;;;20.43;46.28
50356;BME280;36264;51.296;-0.602;2023-05-23T09:35:28;102396.84;;;20.54;46.39
50356;BME280;36264;51.296;-0.602;2023-05-23T09:37:55;102400.22;;;20.57;46.53
50356;BME280;36264;51.296;-0.602;2023-05-23T09:40:28;102390.19;;;20.66;45.73
50356;BME280;36264;51.296;-0.602;2023-05-23T09:42:53;102390.50;;;20.77;43.90
50356;BME280;36264;51.296;-0.602;2023-05-23T09:45:19;102393.00;;;20.80;45.86
50356;BME280;36264;51.296;-0.602;2023-05-23T09:47:53;102400.22;;;20.76;44.96
50356;BME280;36264;51.296;-0.602;2023-05-23T09:50:19;102415.34;;;20.73;46.21
50356;BME280;36264;51.296;-0.602;2023-05-23T09:52:45;102401.91;;;20.77;45.73
50356;BME280;36264;51.296;-0.602;2023-05-23T09:55:11;102405.03;;;20.68;45.47
50356;BME280;36264;51.296;-0.602;2023-05-23T09:57:39;102413.72;;;20.70;44.76
50356;BME280;36264;51.296;-0.602;2023-05-23T10:00:07;102415.19;;;20.57;45.51
50356;BME280;36264;51.296;-0.602;2023-05-23T10:05:10;102423.53;;;20.48;44.98
50356;BME280;36264;51.296;-0.602;2023-05-23T10:07:42;102425.78;;;20.36;45.85
50356;BME280;36264;51.296;-0.602;2023-05-23T10:10:10;102419.69;;;20.36;45.38
50356;BME280;36264;51.296;-0.602;2023-05-23T10:12:54;102430.22;;;20.36;45.23
50356;BME280;36264;51.296;-0.602;2023-05-23T10:15:25;102430.88;;;20.41;45.37
50356;BME280;36264;51.296;-0.602;2023-05-23T10:18:11;102430.38;;;20.52;43.59
50356;BME280;36264;51.296;-0.602;2023-05-23T10:20:42;102428.94;;;20.65;44.62
50356;BME280;36264;51.296;-0.602;2023-05-23T10:23:10;102428.53;;;20.73;44.34
50356;BME280;36264;51.296;-0.602;2023-05-23T10:25:36;102436.75;;;20.86;44.56
50356;BME280;36264;51.296;-0.602;2023-05-23T10:28:02;102433.50;;;20.98;44.25
50356;BME280;36264;51.296;-0.602;2023-05-23T10:30:28;102422.94;;;20.98;43.38
50356;BME280;36264;51.296;-0.602;2023-05-23T10:32:55;102423.78;;;21.17;43.12
50356;BME280;36264;51.296;-0.602;2023-05-23T10:36:03;102422.38;;;21.45;41.76
50356;BME280;36264;51.296;-0.602;2023-05-23T10:38:49;102415.34;;;21.81;40.41
50356;BME280;36264;51.296;-0.602;2023-05-23T10:41:22;102422.97;;;22.03;42.88
50356;BME280;36264;51.296;-0.602;2023-05-23T10:44:19;102416.75;;;22.04;39.32
50356;BME280;36264;51.296;-0.602;2023-05-23T10:46:58;102418.94;;;21.96;39.57
50356;BME280;36264;51.296;-0.602;2023-05-23T10:49:40;102421.28;;;22.02;39.01
50356;BME280;36264;51.296;-0.602;2023-05-23T10:52:07;102415.09;;;22.01;41.56
50356;BME280;36264;51.296;-0.602;2023-05-23T10:54:47;102413.22;;;22.21;40.04
50356;BME280;36264;51.296;-0.602;2023-05-23T10:57:19;102423.03;;;22.68;41.43
50356;BME280;36264;51.296;-0.602;2023-05-23T10:59:45;102411.31;;;22.56;40.72
50356;BME280;36264;51.296;-0.602;2023-05-23T11:02:16;102416.69;;;22.71;40.88
50356;BME280;36264;51.296;-0.602;2023-05-23T11:04:42;102418.38;;;22.88;40.34
50356;BME280;36264;51.296;-0.602;2023-05-23T11:07:30;102408.69;;;23.03;38.03
50356;BME280;36264;51.296;-0.602;2023-05-23T11:12:40;102417.94;;;23.42;37.70
50356;BME280;36264;51.296;-0.602;2023-05-23T11:15:24;102426.41;;;23.48;39.13
50356;BME280;36264;51.296;-0.602;2023-05-23T11:20:17;102419.53;;;23.75;39.52
50356;BME280;36264;51.296;-0.602;2023-05-23T11:23:08;102426.69;;;23.58;35.53
50356;BME280;36264;51.296;-0.602;2023-05-23T11:25:42;102430.44;;;23.70;39.07
50356;BME280;36264;51.296;-0.602;2023-05-23T11:28:12;102424.84;;;23.75;38.72
50356;BME280;36264;51.296;-0.602;2023-05-23T11:30:38;102423.00;;;23.91;39.63
50356;BME280;36264;51.296;-0.602;2023-05-23T11:33:09;102416.19;;;24.16;39.13
50356;BME280;36264;51.296;-0.602;2023-05-23T11:35:39;102417.66;;;24.20;39.39
50356;BME280;36264;51.296;-0.602;2023-05-23T11:38:04;102412.00;;;24.12;39.41
50356;BME280;36264;51.296;-0.602;2023-05-23T11:42:56;102408.38;;;24.27;38.50
50356;BME280;36264;51.296;-0.602;2023-05-23T11:45:22;102412.19;;;24.09;39.28
50356;BME280;36264;51.296;-0.602;2023-05-23T11:47:48;102412.00;;;24.12;39.31
50356;BME280;36264;51.296;-0.602;2023-05-23T11:50:16;102412.47;;;24.04;38.69
50356;BME280;36264;51.296;-0.602;2023-05-23T11:52:42;102416.56;;;23.95;38.95
50356;BME280;36264;51.296;-0.602;2023-05-23T11:55:08;102426.16;;;23.82;38.79
50356;BME280;36264;51.296;-0.602;2023-05-23T11:57:37;102412.31;;;23.62;39.04
50356;BME280;36264;51.296;-0.602;2023-05-23T12:00:06;102413.25;;;23.61;39.21
50356;BME280;36264;51.296;-0.602;2023-05-23T12:02:37;102413.75;;;23.68;37.49
50356;BME280;36264;51.296;-0.602;2023-05-23T12:05:10;102414.72;;;23.81;39.05
50356;BME280;36264;51.296;-0.602;2023-05-23T12:10:08;102408.50;;;23.97;38.39
50356;BME280;36264;51.296;-0.602;2023-05-23T12:12:34;102410.88;;;24.01;38.85
50356;BME280;36264;51.296;-0.602;2023-05-23T12:15:00;102405.94;;;23.95;38.99
50356;BME280;36264;51.296;-0.602;2023-05-23T12:17:25;102401.84;;;23.90;38.66
50356;BME280;36264;51.296;-0.602;2023-05-23T12:19:51;102394.06;;;23.86;38.59
50356;BME280;36264;51.296;-0.602;2023-05-23T12:22:22;102399.72;;;23.80;37.18
50356;BME280;36264;51.296;-0.602;2023-05-23T12:24:48;102400.44;;;23.84;39.04
50356;BME280;36264;51.296;-0.602;2023-05-23T12:27:17;102404.31;;;23.93;38.05
50356;BME280;36264;51.296;-0.602;2023-05-23T12:29:49;102404.41;;;24.05;37.59
50356;BME280;36264;51.296;-0.602;2023-05-23T12:32:16;102409.53;;;24.09;38.65
50356;BME280;36264;51.296;-0.602;2023-05-23T12:34:41;102401.84;;;24.18;38.72
50356;BME280;36264;51.296;-0.602;2023-05-23T12:37:07;102409.56;;;24.50;38.52
50356;BME280;36264;51.296;-0.602;2023-05-23T12:39:35;102400.50;;;24.82;38.56
50356;BME280;36264;51.296;-0.602;2023-05-23T12:42:07;102393.38;;;25.09;36.51
50356;BME280;36264;51.296;-0.602;2023-05-23T12:44:33;102385.22;;;25.25;37.71
50356;BME280;36264;51.296;-0.602;2023-05-23T12:46:58;102384.63;;;25.47;37.23
50356;BME280;36264;51.296;-0.602;2023-05-23T12:49:23;102385.47;;;25.74;37.11
50356;BME280;36264;51.296;-0.602;2023-05-23T12:51:49;102392.50;;;26.00;36.64
50356;BME280;36264;51.296;-0.602;2023-05-23T12:54:14;102379.38;;;26.10;36.46
50356;BME280;36264;51.296;-0.602;2023-05-23T12:56:40;102382.56;;;26.15;36.03
50356;BME280;36264;51.296;-0.602;2023-05-23T12:59:05;102382.56;;;26.15;37.02
50356;BME280;36264;51.296;-0.602;2023-05-23T13:01:30;102380.03;;;26.14;37.21